Time;durP1;ratioP1;P1;durP2;ratioP2;P2;SDS_P1;SDS_P2;PMS_P1;PMS_P2;Temp;Humidity;BMP_temperature;BMP_pressure;BME280_temperature;BME280_humidity;BME280_pressure;Samples;Min_cycle;Max_cycle;Signal;HPM_P1;HPM_P2
2022/01/19 10:22:58;;;;;;;0.10;0.10;;;4.30;99.90;;;;;;6274992;22;20049;-87
2022/01/19 10:25:25;;;;;;;0.10;0.10;;;;;;;;;;6250023;22;20095;-87
2022/01/19 10:27:52;;;;;;;0.10;0.10;;;;;;;;;;6249102;22;20077;-87
2022/01/19 10:30:22;;;;;;;0.10;0.10;;;4.40;99.90;;;;;;6224434;22;20066;-87
2022/01/19 10:32:52;;;;;;;0.10;0.10;;;4.50;99.90;;;;;;6249584;22;20023;-87
2022/01/19 10:35:26;;;;;;;0.10;0.10;;;4.50;99.90;;;;;;6260430;22;20015;-85
2022/01/19 10:38:15;;;;;;;0.00;0.00;;;4.60;99.90;;;;;;6226528;22;20089;-86
2022/01/19 10:40:44;;;;;;;0.10;0.10;;;4.60;99.90;;;;;;6276707;22;20446;-88
2022/01/19 10:43:27;;;;;;;0.17;0.17;;;4.60;99.90;;;;;;6224851;22;20020;-85
2022/01/19 10:45:56;;;;;;;0.08;0.08;;;4.60;99.90;;;;;;6249007;22;20243;-85
2022/01/19 10:48:43;;;;;;;0.00;0.00;;;4.60;99.90;;;;;;6250819;22;20027;-85
2022/01/19 10:51:13;;;;;;;0.10;0.10;;;4.70;99.90;;;;;;6250438;22;20110;-87
2022/01/19 10:53:43;;;;;;;0.10;0.10;;;4.70;99.90;;;;;;6224917;22;20024;-86
2022/01/19 10:56:25;;;;;;;0.10;0.10;;;4.70;99.90;;;;;;6251339;22;20050;-86
2022/01/19 10:58:54;;;;;;;0.10;0.10;;;4.60;99.90;;;;;;6277772;22;20019;-86
2022/01/19 11:01:40;;;;;;;0.10;0.10;;;4.60;99.90;;;;;;6247813;22;20034;-86
2022/01/19 11:04:23;;;;;;;0.10;0.10;;;4.70;99.90;;;;;;6249876;22;20051;-87
2022/01/19 11:06:54;;;;;;;0.05;0.05;;;4.70;99.90;;;;;;6224350;22;20034;-85
2022/01/19 11:09:25;;;;;;;0.10;0.10;;;4.70;99.90;;;;;;6250866;22;20015;-86
2022/01/19 11:11:53;;;;;;;0.10;0.10;;;4.70;99.90;;;;;;6225291;22;20015;-87
2022/01/19 11:14:23;;;;;;;0.10;0.10;;;4.70;99.90;;;;;;6223764;22;20397;-86
2022/01/19 11:16:51;;;;;;;0.10;0.10;;;4.80;99.90;;;;;;6250134;22;20023;-86
2022/01/19 11:19:19;;;;;;;0.00;0.00;;;;;;;;;;6249592;22;20135;-86
2022/01/19 11:22:17;;;;;;;0.10;0.10;;;4.80;99.90;;;;;;6242776;23;20517;-85
2022/01/19 11:24:58;;;;;;;0.17;0.17;;;4.80;99.90;;;;;;6245004;23;20020;-87
2022/01/19 11:27:28;;;;;;;0.10;0.10;;;4.80;99.90;;;;;;6219768;23;20020;-87
2022/01/19 11:30:11;;;;;;;0.10;0.10;;;4.70;99.90;;;;;;6244440;23;20339;-87
2022/01/19 11:32:38;;;;;;;0.10;0.10;;;4.70;99.90;;;;;;6243750;23;20394;-86
2022/01/19 11:35:06;;;;;;;0.10;0.10;;;4.70;99.90;;;;;;6245225;23;20070;-87
2022/01/19 11:37:37;;;;;;;0.10;0.10;;;4.70;99.90;;;;;;6219527;23;20462;-85
2022/01/19 11:40:11;;;;;;;0.10;0.10;;;4.80;99.90;;;;;;6219068;23;20024;-85
2022/01/19 11:42:38;;;;;;;0.10;0.10;;;;;;;;;;6218328;23;20264;-86
2022/01/19 11:45:07;;;;;;;0.10;0.10;;;4.80;99.90;;;;;;6246777;22;20085;-85
2022/01/19 11:47:34;;;;;;;0.10;0.10;;;;;;;;;;6219676;23;20053;-85
2022/01/19 11:50:05;;;;;;;0.10;0.10;;;4.80;99.90;;;;;;6241965;23;20039;-85
2022/01/19 11:53:05;;;;;;;0.10;0.10;;;4.80;99.90;;;;;;6253439;23;20024;-86
2022/01/19 11:55:33;;;;;;;0.20;0.20;;;4.70;99.90;;;;;;6245624;23;20020;-87
2022/01/19 11:58:13;;;;;;;0.10;0.10;;;4.70;99.90;;;;;;6244438;23;20016;-86
2022/01/19 12:00:41;;;;;;;0.10;0.10;;;4.80;99.90;;;;;;6244403;23;20016;-87
2022/01/19 12:03:21;;;;;;;0.10;0.10;;;4.80;99.90;;;;;;6220103;23;20348;-87
2022/01/19 12:06:08;;;;;;;0.10;0.10;;;;;;;;;;6245702;23;20020;-87
2022/01/19 12:08:38;;;;;;;0.00;0.00;;;4.90;99.90;;;;;;6243056;23;20016;-85
2022/01/19 12:11:15;;;;;;;0.10;0.10;;;4.90;99.90;;;;;;6244062;23;20446;-86
2022/01/19 12:19:15;;;;;;;0.10;0.10;;;5.00;99.90;;;;;;6245558;22;20043;-87
2022/01/19 12:21:45;;;;;;;0.10;0.10;;;4.90;99.90;;;;;;6247500;22;20024;-85
2022/01/19 12:24:34;;;;;;;0.10;0.10;;;4.90;99.90;;;;;;6223663;22;20091;-86
2022/01/19 12:27:06;;;;;;;0.10;0.10;;;4.80;99.90;;;;;;6221625;22;20080;-85
2022/01/19 12:29:48;;;;;;;0.10;0.10;;;4.80;99.90;;;;;;6249119;22;20023;-82
2022/01/19 12:32:42;;;;;;;0.10;0.10;;;4.80;99.90;;;;;;6218952;22;20023;-86
2022/01/19 12:35:14;;;;;;;0.10;0.10;;;4.90;99.90;;;;;;6248175;22;20019;-85
2022/01/19 12:37:44;;;;;;;0.10;0.10;;;4.90;99.90;;;;;;6197722;22;20019;-85
2022/01/19 12:40:36;;;;;;;0.10;0.10;;;4.90;99.90;;;;;;6221322;22;20016;-85
2022/01/19 12:43:07;;;;;;;0.10;0.10;;;4.90;99.90;;;;;;6222958;22;20023;-84
2022/01/19 12:45:45;;;;;;;0.10;0.10;;;4.80;99.90;;;;;;6224471;22;20019;-86
2022/01/19 12:48:14;;;;;;;0.10;0.10;;;;;;;;;;6249695;22;20316;-85
2022/01/19 12:50:46;;;;;;;0.10;0.10;;;4.90;99.90;;;;;;6278277;22;20022;-85
2022/01/19 12:53:23;;;;;;;0.10;0.10;;;4.90;99.90;;;;;;6249326;22;20023;-83
2022/01/19 12:55:54;;;;;;;0.10;0.10;;;5.00;99.90;;;;;;6250965;22;20082;-85
2022/01/19 12:58:26;;;;;;;0.10;0.10;;;4.90;99.90;;;;;;6222717;22;20393;-85
2022/01/19 13:00:56;;;;;;;0.00;0.00;;;5.00;99.90;;;;;;6248945;22;20031;-84
2022/01/19 13:03:28;;;;;;;0.10;0.10;;;5.50;99.90;;;;;;6261600;22;20103;-85
2022/01/19 13:06:01;;;;;;;0.10;0.10;;;5.00;99.90;;;;;;6250024;22;20094;-85
2022/01/19 13:08:38;;;;;;;0.10;0.10;;;4.90;99.90;;;;;;6247245;22;20078;-86
2022/01/19 13:11:29;;;;;;;0.03;0.03;;;4.90;99.90;;;;;;6223189;22;20259;-86
2022/01/19 13:14:00;;;;;;;0.10;0.10;;;4.90;99.90;;;;;;6275908;22;20069;-85
2022/01/19 13:16:36;;;;;;;0.10;0.10;;;4.90;99.90;;;;;;6247625;22;20604;-85
2022/01/19 13:19:13;;;;;;;0.10;0.10;;;5.00;99.90;;;;;;6251980;22;20027;-85
2022/01/19 13:21:42;;;;;;;0.10;0.10;;;5.00;99.90;;;;;;6248769;22;20020;-86
2022/01/19 13:24:18;;;;;;;0.10;0.10;;;4.90;99.90;;;;;;6250408;22;20019;-86
2022/01/19 13:26:52;;;;;;;0.10;0.10;;;4.90;99.90;;;;;;6250277;22;20016;-85
2022/01/19 13:29:23;;;;;;;0.08;0.08;;;5.00;99.90;;;;;;6277806;22;20019;-85
2022/01/19 13:32:04;;;;;;;0.10;0.10;;;4.90;99.90;;;;;;6246838;22;20065;-85
2022/01/19 13:34:32;;;;;;;0.10;0.10;;;5.00;99.90;;;;;;6255873;22;20016;-88
2022/01/19 13:37:03;;;;;;;0.10;0.10;;;5.00;99.90;;;;;;6223542;22;20100;-83
2022/01/19 13:39:33;;;;;;;0.10;0.10;;;5.00;99.90;;;;;;6249791;22;20019;-85
2022/01/19 13:42:03;;;;;;;0.10;0.10;;;5.00;99.90;;;;;;6278511;22;20019;-85
2022/01/19 13:44:35;;;;;;;0.03;0.03;;;5.10;99.90;;;;;;6251567;22;20016;-85
2022/01/19 13:47:10;;;;;;;0.10;0.10;;;5.00;99.90;;;;;;6225523;22;20024;-86
2022/01/19 13:49:39;;;;;;;0.10;0.10;;;5.10;99.90;;;;;;6224369;22;20016;-86
2022/01/19 13:52:09;;;;;;;0.10;0.10;;;5.10;99.90;;;;;;6259228;22;20455;-85
2022/01/19 13:54:38;;;;;;;0.10;0.10;;;5.00;99.90;;;;;;6251182;22;20462;-84
2022/01/19 13:57:05;;;;;;;0.10;0.10;;;;;;;;;;6277697;22;20024;-86
2022/01/19 13:59:33;;;;;;;0.10;0.10;;;5.00;99.90;;;;;;6227548;22;20015;-86
2022/01/19 14:02:02;;;;;;;0.10;0.10;;;;;;;;;;6251529;22;20019;-85
2022/01/19 14:04:32;;;;;;;0.10;0.10;;;5.10;99.90;;;;;;6252183;22;20054;-86
2022/01/19 14:07:05;;;;;;;0.10;0.10;;;5.00;99.90;;;;;;6250959;22;20238;-85
2022/01/19 14:09:36;;;;;;;0.10;0.10;;;5.10;99.90;;;;;;6249278;22;20023;-87
2022/01/19 14:12:06;;;;;;;0.10;0.10;;;5.10;99.90;;;;;;6251115;22;20023;-85
2022/01/19 14:14:36;;;;;;;;;;;5.10;99.90;;;;;;6250564;22;20397;-87
2022/01/19 14:17:05;;;;;;;0.10;0.10;;;5.10;99.90;;;;;;6249650;22;19969;-87
2022/01/19 14:19:33;;;;;;;0.10;0.10;;;5.10;99.90;;;;;;6261376;22;20065;-87
2022/01/19 14:22:07;;;;;;;0.20;0.20;;;5.00;99.90;;;;;;6276889;22;20065;-87
2022/01/19 14:24:50;;;;;;;0.10;0.10;;;5.00;99.90;;;;;;6225597;22;20019;-86
2022/01/19 14:27:52;;;;;;;0.10;0.10;;;5.00;99.90;;;;;;6226761;22;20030;-87
2022/01/19 14:30:28;;;;;;;0.10;0.10;;;5.10;99.90;;;;;;6248407;22;20086;-87
2022/01/19 14:32:58;;;;;;;0.10;0.10;;;5.00;99.90;;;;;;6273961;22;20016;-87
2022/01/19 14:35:46;;;;;;;0.10;0.10;;;5.00;99.90;;;;;;6257232;22;20023;-89
2022/01/19 14:38:25;;;;;;;0.10;0.10;;;5.10;99.90;;;;;;6222123;22;20403;-88
2022/01/19 14:40:59;;;;;;;0.10;0.10;;;5.00;99.90;;;;;;6248331;22;20012;-88
2022/01/19 14:43:29;;;;;;;0.08;0.08;;;5.00;99.90;;;;;;6248535;22;20016;-87
2022/01/19 14:46:05;;;;;;;0.10;0.10;;;5.00;99.90;;;;;;6249223;22;20022;-88
2022/01/19 14:48:37;;;;;;;0.10;0.10;;;5.00;99.90;;;;;;6248863;22;20031;-87
2022/01/19 14:51:18;;;;;;;0.10;0.10;;;5.00;99.90;;;;;;6247930;22;20064;-88
2022/01/19 14:53:46;;;;;;;0.10;0.10;;;;;;;;;;6222854;22;20031;-88
2022/01/19 14:56:13;;;;;;;0.00;0.00;;;5.00;99.90;;;;;;6248252;22;20026;-87
2022/01/19 14:58:40;;;;;;;0.03;0.03;;;5.00;99.90;;;;;;6260940;22;20327;-85
2022/01/19 15:01:08;;;;;;;0.10;0.10;;;5.00;99.90;;;;;;6249410;22;20011;-87
2022/01/19 15:03:36;;;;;;;0.10;0.10;;;;;;;;;;6260566;22;20339;-86
2022/01/19 15:06:03;;;;;;;0.10;0.10;;;;;;;;;;6246672;22;20069;-85
2022/01/19 15:08:31;;;;;;;0.10;0.10;;;;;;;;;;6245565;22;20020;-88
2022/01/19 15:10:59;;;;;;;0.10;0.10;;;4.90;99.90;;;;;;6247678;22;20015;-86
2022/01/19 15:13:26;;;;;;;0.10;0.10;;;4.90;99.90;;;;;;6248423;22;20022;-86
2022/01/19 15:15:53;;;;;;;0.10;0.10;;;;;;;;;;6249207;22;20074;-85
2022/01/19 15:18:21;;;;;;;0.10;0.10;;;4.90;99.90;;;;;;6222868;22;20020;-86
2022/01/19 15:20:49;;;;;;;0.10;0.10;;;4.90;99.90;;;;;;6247767;22;20085;-86
2022/01/19 15:23:17;;;;;;;0.10;0.10;;;;;;;;;;6222646;22;20003;-86
2022/01/19 15:25:44;;;;;;;0.10;0.10;;;4.90;99.90;;;;;;6248963;22;20066;-86
2022/01/19 15:28:12;;;;;;;0.10;0.10;;;4.90;99.90;;;;;;6223377;22;20023;-87
2022/01/19 15:30:43;;;;;;;0.10;0.10;;;4.90;99.90;;;;;;6248161;22;20030;-85
2022/01/19 15:33:11;;;;;;;0.00;0.00;;;4.80;99.90;;;;;;6276622;22;20050;-86
2022/01/19 15:35:39;;;;;;;0.10;0.10;;;4.90;99.90;;;;;;6276404;22;20454;-87
2022/01/19 15:38:07;;;;;;;0.10;0.10;;;4.80;99.90;;;;;;6248684;22;20023;-87
2022/01/19 15:40:36;;;;;;;0.10;0.10;;;5.00;99.90;;;;;;6225611;22;20077;-86
2022/01/19 15:43:07;;;;;;;0.10;0.10;;;4.90;99.90;;;;;;6250361;22;20443;-86
2022/01/19 15:45:36;;;;;;;0.00;0.00;;;4.90;99.90;;;;;;6250545;22;20020;-86
2022/01/19 15:48:04;;;;;;;0.10;0.10;;;4.90;99.90;;;;;;6275547;22;20070;-86
2022/01/19 15:50:32;;;;;;;0.10;0.10;;;4.90;99.90;;;;;;6251142;22;20015;-87
2022/01/19 15:53:01;;;;;;;0.10;0.10;;;4.90;99.90;;;;;;6276145;22;20023;-86
2022/01/19 15:55:28;;;;;;;0.10;0.10;;;4.80;99.90;;;;;;6222562;22;20073;-85
2022/01/19 15:58:13;;;;;;;0.10;0.10;;;4.80;99.90;;;;;;6252255;22;20512;-86
2022/01/19 16:00:40;;;;;;;0.10;0.10;;;;;;;;;;6249596;22;20535;-85
2022/01/19 16:03:07;;;;;;;0.10;0.10;;;;;;;;;;6247607;22;20354;-86
2022/01/19 16:05:35;;;;;;;0.10;0.10;;;4.90;99.90;;;;;;6248874;22;20114;-86
2022/01/19 16:08:05;;;;;;;0.10;0.10;;;4.90;99.90;;;;;;6248375;22;20020;-86
2022/01/19 16:10:33;;;;;;;0.10;0.10;;;5.10;99.90;;;;;;6222351;22;20454;-86
2022/01/19 16:13:01;;;;;;;0.10;0.10;;;;;;;;;;6247883;22;20512;-86
2022/01/19 16:15:28;;;;;;;0.03;0.03;;;;;;;;;;6247946;22;20389;-88
2022/01/19 16:17:55;;;;;;;0.05;0.05;;;4.90;99.90;;;;;;6248033;22;20024;-87
2022/01/19 16:20:22;;;;;;;0.10;0.10;;;;;;;;;;6249736;22;20481;-87
2022/01/19 16:28:22;;;;;;;0.10;0.10;;;4.90;99.90;;;;;;6276486;22;20024;-85
2022/01/19 16:30:50;;;;;;;0.10;0.10;;;4.90;99.90;;;;;;6246277;22;20114;-87
2022/01/19 16:33:18;;;;;;;0.00;0.00;;;4.90;99.90;;;;;;6274802;22;20027;-85
2022/01/19 16:46:27;;;;;;;0.10;0.10;;;4.80;99.90;;;;;;6330127;22;20008;-80
